Time,TemperatureF,DewpointF,PressureIn,WindDirection,WindDirectionDegrees,WindSpeedMPH,WindSpeedGustMPH,Humidity,HourlyPrecipIn,Conditions,Clouds,dailyrainin,SoftwareType,DateUTC
2013-01-30 00:10:00,72.7,68.0,29.61,SSE,151,2.0,-999.0,84,-99.99,,,0.01,weatherlink.com 1.10,2013-01-30 06:10:00,
2013-01-30 00:25:00,72.7,68.0,29.61,South,174,2.0,-999.0,84,-99.99,,,0.01,weatherlink.com 1.10,2013-01-30 06:25:00,
2013-01-30 00:40:00,72.5,68.0,29.62,WSW,237,6.0,-999.0,86,-99.99,,,0.05,weatherlink.com 1.10,2013-01-30 06:40:00,
2013-01-30 00:55:00,63.4,57.0,29.69,WNW,292,5.0,-999.0,79,-99.99,,,0.08,weatherlink.com 1.10,2013-01-30 06:55:00,
2013-01-30 01:10:00,59.0,54.0,29.67,North,349,2.0,-999.0,84,-99.99,,,0.28,weatherlink.com 1.10,2013-01-30 07:10:00,
2013-01-30 01:25:00,57.5,54.0,29.70,NW,306,4.0,-999.0,87,-99.99,,,0.37,weatherlink.com 1.10,2013-01-30 07:25:00,
2013-01-30 01:40:00,56.3,53.0,29.69,WNW,291,2.0,-999.0,89,-99.99,,,0.54,weatherlink.com 1.10,2013-01-30 07:40:00,
2013-01-30 01:55:00,55.6,53.0,29.71,West,280,0.0,-999.0,90,-99.99,,,0.69,weatherlink.com 1.10,2013-01-30 07:55:00,
2013-01-30 02:10:00,55.1,53.0,29.70,WNW,301,0.0,-999.0,91,-99.99,,,0.75,weatherlink.com 1.10,2013-01-30 08:10:00,
2013-01-30 02:25:00,54.8,53.0,29.69,WNW,301,0.0,-999.0,92,-99.99,,,0.76,weatherlink.com 1.10,2013-01-30 08:25:00,
2013-01-30 02:40:00,54.8,53.0,29.68,WNW,301,0.0,-999.0,92,-99.99,,,0.77,weatherlink.com 1.10,2013-01-30 08:40:00,
2013-01-30 02:55:00,55.0,53.0,29.69,WNW,285,0.0,-999.0,92,-99.99,,,0.77,weatherlink.com 1.10,2013-01-30 08:55:00,
2013-01-30 03:10:00,55.0,53.0,29.68,WNW,285,0.0,-999.0,93,-99.99,,,0.77,weatherlink.com 1.10,2013-01-30 09:10:00,
2013-01-30 03:25:00,55.0,53.0,29.70,WSW,258,0.0,-999.0,93,-99.99,,,0.77,weatherlink.com 1.10,2013-01-30 09:25:00,
2013-01-30 03:41:00,54.7,53.0,29.69,WSW,258,0.0,-999.0,93,-99.99,,,0.77,weatherlink.com 1.10,2013-01-30 09:41:00,
2013-01-30 03:55:00,54.5,53.0,29.68,WSW,258,0.0,-999.0,94,-99.99,,,0.77,weatherlink.com 1.10,2013-01-30 09:55:00,
2013-01-30 04:10:00,54.7,53.0,29.67,WSW,258,0.0,-999.0,94,-99.99,,,0.77,weatherlink.com 1.10,2013-01-30 10:10:00,
2013-01-30 04:26:00,54.7,53.0,29.66,WSW,258,0.0,-999.0,94,-99.99,,,0.77,weatherlink.com 1.10,2013-01-30 10:26:00,
2013-01-30 04:41:00,54.8,53.0,29.66,WSW,258,0.0,-999.0,94,-99.99,,,0.77,weatherlink.com 1.10,2013-01-30 10:41:00,
2013-01-30 04:55:00,55.0,53.0,29.66,West,261,2.0,-999.0,94,-99.99,,,0.77,weatherlink.com 1.10,2013-01-30 10:55:00,
2013-01-30 05:11:00,55.0,53.0,29.65,West,265,2.0,-999.0,94,-99.99,,,0.77,weatherlink.com 1.10,2013-01-30 11:11:00,
2013-01-30 05:25:00,54.8,53.0,29.65,West,270,5.0,-999.0,94,-99.99,,,0.77,weatherlink.com 1.10,2013-01-30 11:25:00,
2013-01-30 05:40:00,54.7,53.0,29.65,SSW,202,0.0,-999.0,94,-99.99,,,0.77,weatherlink.com 1.10,2013-01-30 11:40:00,
2013-01-30 05:55:00,54.5,53.0,29.66,SSW,205,0.0,-999.0,94,-99.99,,,0.77,weatherlink.com 1.10,2013-01-30 11:55:00,
2013-01-30 06:11:00,54.5,53.0,29.68,WSW,257,2.0,-999.0,95,-99.99,,,0.77,weatherlink.com 1.10,2013-01-30 12:11:00,
2013-01-30 06:25:00,54.5,53.0,29.69,West,280,5.0,-999.0,94,-99.99,,,0.77,weatherlink.com 1.10,2013-01-30 12:25:00,
2013-01-30 06:40:00,54.4,53.0,29.69,West,268,4.0,-999.0,94,-99.99,,,0.77,weatherlink.com 1.10,2013-01-30 12:40:00,
2013-01-30 06:56:00,54.4,53.0,29.70,West,267,3.0,-999.0,94,-99.99,,,0.77,weatherlink.com 1.10,2013-01-30 12:56:00,
2013-01-30 07:10:00,54.2,52.0,29.71,WSW,244,0.0,-999.0,93,-99.99,,,0.77,weatherlink.com 1.10,2013-01-30 13:10:00,
2013-01-30 07:26:00,53.9,52.0,29.72,WNW,295,2.0,-999.0,92,-99.99,,,0.77,weatherlink.com 1.10,2013-01-30 13:26:00,
2013-01-30 07:41:00,54.1,51.0,29.73,West,261,2.0,-999.0,89,-99.99,,,0.77,weatherlink.com 1.10,2013-01-30 13:41:00,
2013-01-30 07:56:00,54.1,50.0,29.73,NW,311,3.0,-999.0,86,-99.99,,,0.77,weatherlink.com 1.10,2013-01-30 13:56:00,
2013-01-30 08:11:00,54.2,48.0,29.74,WSW,246,5.0,-999.0,80,-99.99,,,0.77,weatherlink.com 1.10,2013-01-30 14:11:00,
2013-01-30 08:26:00,54.5,47.0,29.74,WSW,248,4.0,-999.0,76,-99.99,,,0.77,weatherlink.com 1.10,2013-01-30 14:26:00,
2013-01-30 08:41:00,54.7,45.0,29.75,West,264,0.0,-999.0,71,-99.99,,,0.77,weatherlink.com 1.10,2013-01-30 14:41:00,
2013-01-30 08:56:00,54.8,44.0,29.75,West,265,3.0,-999.0,67,-99.99,,,0.77,weatherlink.com 1.10,2013-01-30 14:56:00,
2013-01-30 09:11:00,55.3,43.0,29.75,WSW,246,0.0,-999.0,64,-99.99,,,0.77,weatherlink.com 1.10,2013-01-30 15:11:00,
2013-01-30 09:26:00,55.7,41.0,29.75,WSW,244,6.0,-999.0,59,-99.99,,,0.77,weatherlink.com 1.10,2013-01-30 15:26:00,
2013-01-30 09:41:00,55.7,41.0,29.77,West,274,2.0,-999.0,58,-99.99,,,0.77,weatherlink.com 1.10,2013-01-30 15:41:00,
2013-01-30 09:56:00,55.9,39.0,29.78,West,278,7.0,-999.0,54,-99.99,,,0.77,weatherlink.com 1.10,2013-01-30 15:56:00,
2013-01-30 10:11:00,56.3,38.0,29.78,West,278,2.0,-999.0,50,-99.99,,,0.77,weatherlink.com 1.10,2013-01-30 16:11:00,
2013-01-30 10:26:00,55.7,35.0,29.79,WSW,253,3.0,-999.0,46,-99.99,,,0.77,weatherlink.com 1.10,2013-01-30 16:26:00,
2013-01-30 10:41:00,55.1,34.0,29.80,WNW,282,5.0,-999.0,45,-99.99,,,0.77,weatherlink.com 1.10,2013-01-30 16:41:00,
2013-01-30 10:56:00,54.8,34.0,29.80,NNW,332,7.0,-999.0,45,-99.99,,,0.77,weatherlink.com 1.10,2013-01-30 16:56:00,
2013-01-30 11:11:00,54.7,34.0,29.81,West,265,7.0,-999.0,46,-99.99,,,0.77,weatherlink.com 1.10,2013-01-30 17:11:00,
2013-01-30 11:26:00,55.1,36.0,29.82,West,261,7.0,-999.0,48,-99.99,,,0.77,weatherlink.com 1.10,2013-01-30 17:26:00,
2013-01-30 11:40:00,56.3,37.0,29.82,NW,315,18.0,-999.0,49,-99.99,,,0.77,weatherlink.com 1.10,2013-01-30 17:40:00,
2013-01-30 11:56:00,56.5,37.0,29.82,NW,308,6.0,-999.0,48,-99.99,,,0.77,weatherlink.com 1.10,2013-01-30 17:56:00,
2013-01-30 12:10:00,57.5,37.0,29.82,WNW,287,11.0,-999.0,47,-99.99,,,0.77,weatherlink.com 1.10,2013-01-30 18:10:00,
2013-01-30 12:26:00,56.9,38.0,29.83,WNW,288,7.0,-999.0,50,-99.99,,,0.77,weatherlink.com 1.10,2013-01-30 18:26:00,
2013-01-30 12:41:00,57.3,38.0,29.84,West,280,12.0,-999.0,49,-99.99,,,0.77,weatherlink.com 1.10,2013-01-30 18:41:00,
2013-01-30 12:56:00,56.7,38.0,29.84,WNW,292,2.0,-999.0,50,-99.99,,,0.77,weatherlink.com 1.10,2013-01-30 18:56:00,
2013-01-30 13:11:00,57.3,38.0,29.85,WNW,298,14.0,-999.0,48,-99.99,,,0.77,weatherlink.com 1.10,2013-01-30 19:11:00,
2013-01-30 13:26:00,54.7,36.0,29.86,West,277,7.0,-999.0,50,-99.99,,,0.77,weatherlink.com 1.10,2013-01-30 19:26:00,
2013-01-30 13:41:00,56.5,37.0,29.87,West,263,10.0,-999.0,49,-99.99,,,0.77,weatherlink.com 1.10,2013-01-30 19:41:00,
2013-01-30 13:56:00,55.0,36.0,29.88,WSW,253,5.0,-999.0,50,-99.99,,,0.77,weatherlink.com 1.10,2013-01-30 19:56:00,
2013-01-30 14:11:00,56.7,38.0,29.87,North,0,11.0,-999.0,49,-99.99,,,0.77,weatherlink.com 1.10,2013-01-30 20:11:00,
2013-01-30 14:26:00,56.0,36.0,29.88,West,260,5.0,-999.0,48,-99.99,,,0.77,weatherlink.com 1.10,2013-01-30 20:26:00,
2013-01-30 14:41:00,56.0,36.0,29.89,West,278,7.0,-999.0,47,-99.99,,,0.77,weatherlink.com 1.10,2013-01-30 20:41:00,
2013-01-30 14:56:00,55.9,36.0,29.90,NNW,333,10.0,-999.0,47,-99.99,,,0.77,weatherlink.com 1.10,2013-01-30 20:56:00,
2013-01-30 15:11:00,53.1,35.0,29.91,WNW,285,10.0,-999.0,50,-99.99,,,0.77,weatherlink.com 1.10,2013-01-30 21:11:00,
2013-01-30 15:26:00,53.8,36.0,29.92,NW,318,12.0,-999.0,52,-99.99,,,0.77,weatherlink.com 1.10,2013-01-30 21:26:00,
2013-01-30 15:41:00,53.2,35.0,29.93,West,280,9.0,-999.0,51,-99.99,,,0.77,weatherlink.com 1.10,2013-01-30 21:41:00,
2013-01-30 15:56:00,52.8,33.0,29.95,WNW,287,11.0,-999.0,48,-99.99,,,0.77,weatherlink.com 1.10,2013-01-30 21:56:00,
2013-01-30 16:11:00,52.2,32.0,29.96,NNW,337,3.0,-999.0,46,-99.99,,,0.77,weatherlink.com 1.10,2013-01-30 22:11:00,
2013-01-30 16:26:00,51.6,31.0,29.97,WNW,294,13.0,-999.0,45,-99.99,,,0.77,weatherlink.com 1.10,2013-01-30 22:26:00,
2013-01-30 16:41:00,51.1,31.0,29.97,NW,304,4.0,-999.0,47,-99.99,,,0.77,weatherlink.com 1.10,2013-01-30 22:41:00,
2013-01-30 16:56:00,50.8,33.0,29.98,WNW,298,5.0,-999.0,50,-99.99,,,0.77,weatherlink.com 1.10,2013-01-30 22:56:00,
2013-01-30 17:11:00,50.4,32.0,29.98,WNW,284,3.0,-999.0,50,-99.99,,,0.77,weatherlink.com 1.10,2013-01-30 23:11:00,
2013-01-30 17:26:00,50.1,31.0,29.99,WNW,301,4.0,-999.0,49,-99.99,,,0.77,weatherlink.com 1.10,2013-01-30 23:26:00,
2013-01-30 17:41:00,49.6,31.0,30.00,NW,313,3.0,-999.0,49,-99.99,,,0.77,weatherlink.com 1.10,2013-01-30 23:41:00,
2013-01-30 17:56:00,49.2,31.0,30.01,NW,323,1.0,-999.0,50,-99.99,,,0.77,weatherlink.com 1.10,2013-01-30 23:56:00,
2013-01-30 18:11:00,48.8,31.0,30.01,NW,304,2.0,-999.0,51,-99.99,,,0.77,weatherlink.com 1.10,2013-01-31 00:11:00,
2013-01-30 18:26:00,48.2,32.0,30.03,NW,304,0.0,-999.0,53,-99.99,,,0.77,weatherlink.com 1.10,2013-01-31 00:26:00,
2013-01-30 18:41:00,47.9,32.0,30.04,West,272,6.0,-999.0,54,-99.99,,,0.77,weatherlink.com 1.10,2013-01-31 00:41:00,
2013-01-30 18:56:00,47.7,31.0,30.06,WNW,291,2.0,-999.0,52,-99.99,,,0.77,weatherlink.com 1.10,2013-01-31 00:56:00,
2013-01-30 19:11:00,47.7,31.0,30.06,West,278,5.0,-999.0,52,-99.99,,,0.77,weatherlink.com 1.10,2013-01-31 01:11:00,
2013-01-30 19:26:00,47.4,30.0,30.06,NW,305,0.0,-999.0,52,-99.99,,,0.77,weatherlink.com 1.10,2013-01-31 01:26:00,
2013-01-30 19:41:00,47.0,30.0,30.07,WNW,302,0.0,-999.0,53,-99.99,,,0.77,weatherlink.com 1.10,2013-01-31 01:41:00,
2013-01-30 19:56:00,46.5,30.0,30.07,WNW,298,2.0,-999.0,54,-99.99,,,0.77,weatherlink.com 1.10,2013-01-31 01:56:00,
2013-01-30 20:10:00,46.0,30.0,30.07,WNW,289,0.0,-999.0,54,-99.99,,,0.77,weatherlink.com 1.10,2013-01-31 02:10:00,
2013-01-30 20:26:00,45.5,30.0,30.07,WNW,289,0.0,-999.0,56,-99.99,,,0.77,weatherlink.com 1.10,2013-01-31 02:26:00,
2013-01-30 20:40:00,44.9,30.0,30.08,WNW,289,0.0,-999.0,56,-99.99,,,0.77,weatherlink.com 1.10,2013-01-31 02:40:00,
2013-01-30 20:56:00,44.1,30.0,30.09,WNW,289,0.0,-999.0,57,-99.99,,,0.77,weatherlink.com 1.10,2013-01-31 02:56:00,
2013-01-30 21:10:00,43.2,29.0,30.10,WNW,289,0.0,-999.0,58,-99.99,,,0.77,weatherlink.com 1.10,2013-01-31 03:10:00,
2013-01-30 21:26:00,42.3,30.0,30.11,WNW,289,0.0,-999.0,61,-99.99,,,0.77,weatherlink.com 1.10,2013-01-31 03:26:00,
2013-01-30 21:40:00,41.5,30.0,30.12,WNW,289,0.0,-999.0,65,-99.99,,,0.77,weatherlink.com 1.10,2013-01-31 03:40:00,
2013-01-30 21:56:00,40.8,30.0,30.12,WNW,289,0.0,-999.0,66,-99.99,,,0.77,weatherlink.com 1.10,2013-01-31 03:56:00,
2013-01-30 22:10:00,40.1,29.0,30.12,WNW,289,0.0,-999.0,66,-99.99,,,0.77,weatherlink.com 1.10,2013-01-31 04:10:00,
2013-01-30 22:25:00,39.3,29.0,30.13,WNW,289,0.0,-999.0,66,-99.99,,,0.77,weatherlink.com 1.10,2013-01-31 04:25:00,
2013-01-30 22:41:00,38.6,29.0,30.13,WNW,289,0.0,-999.0,68,-99.99,,,0.77,weatherlink.com 1.10,2013-01-31 04:41:00,
2013-01-30 22:55:00,38.0,29.0,30.13,WNW,289,0.0,-999.0,71,-99.99,,,0.77,weatherlink.com 1.10,2013-01-31 04:55:00,
2013-01-30 23:11:00,37.6,30.0,30.14,WNW,289,0.0,-999.0,74,-99.99,,,0.00,weatherlink.com 1.10,2013-01-31 05:11:00,
2013-01-30 23:25:00,37.2,30.0,30.15,WNW,289,0.0,-999.0,76,-99.99,,,0.00,weatherlink.com 1.10,2013-01-31 05:25:00,
2013-01-30 23:40:00,36.8,30.0,30.15,WNW,289,0.0,-999.0,77,-99.99,,,0.00,weatherlink.com 1.10,2013-01-31 05:40:00,
2013-01-30 23:55:00,36.6,31.0,30.16,WNW,289,0.0,-999.0,79,-99.99,,,0.00,weatherlink.com 1.10,2013-01-31 05:55:00,